Decoded Metar for KEGV (EAGLE RIVER in WI, USA) (IATA:EGV) | Meteo·Mobile Aviation Weather
aviador You're here:

KEGV Decoded Metar

EAGLE RIVER in WI, USA
Report Time2019-06-18 14:15:00
UTC Time2019-06-18 14:39:22
Flight Rules vfr VFR
Wind250° at 07 kt
W.Decomp.*RWY 22: 5.9 kt HW 3.7 kt RCW
RWY 31: 3.7 kt HW 5.9 kt LCW
Visibility9999 m
Phenomena:N/A
Clouds:Scattered 027 Hf
Broken 037 Hf
Overcast 050 Hf
Expected CloudBase > 3,200 ft AGL from Temp-Dew spread
Ceiling3,700 ft
Temp18°C (ISA +6)
Dew Point10°C (60% RH)
AAT15.6°C
QNH1014 hPa
Density Alt2,510 ft
Elevation1,640 ft
Report Wrong Elevation
Raw Report
KEGV 181415Z AUTO 25007KT 10SM SCT027 BKN037 OVC050 18/10 A2994
RMK AO2 T01800104=

Extra information for KEGV:More info

Metar Taf Metar & Taf Last 4 Metars F.Rules Stats Wind Profile Meteogram Temp Stats Airport Information Weather charts Add Link Nearby VenuesMetar ALERT Operation Metar Decoded Social comments

AIRNAV info for KEGV